Погода Хиллына 2 недели

Аранский район, Азербайджан

16 - 29 июля
  • 16июля
    Сегодня
    +21°
    +35°
    Ясно и безоблачно
    ВремяПогодаТемператураВлажностьДавлениеВетер, м/сВероятность осадков
    01:00Ясно и безоблачно+23°C71 %757 мм1.7 м/с2 %
    04:00Ясно и безоблачно+21°C78 %757 мм1.4 м/с2 %
    07:00Ясно и безоблачно+25°C74 %758 мм1.6 м/с2 %
    10:00Ясно и безоблачно+32°C46 %758 мм3.0 м/с2 %
    13:00Ясно и безоблачно+34°C38 %757 мм3.9 м/с2 %
    16:00Ясно и безоблачно+34°C36 %756 мм4.4 м/с2 %
    19:00Ясно и безоблачно+31°C48 %756 мм3.7 м/с2 %
    22:00Ясно и безоблачно+25°C67 %757 мм1.8 м/с2 %
  • 17июля
    Среда
    +21°
    +36°
    Ясно и безоблачно
    ВремяПогодаТемператураВлажностьДавлениеВетер, м/сВероятность осадков
    01:00Ясно и безоблачно+22°C77 %757 мм1.4 м/с2 %
    04:00Ясно и безоблачно+21°C82 %757 мм0.9 м/с2 %
    07:00Ясно и безоблачно+24°C77 %758 мм1.0 м/с2 %
    10:00Ясно и безоблачно+32°C48 %758 мм1.7 м/с2 %
    13:00Ясно и безоблачно+35°C35 %758 мм3.6 м/с2 %
    16:00Ясно и безоблачно+35°C38 %757 мм4.6 м/с2 %
    19:00Ясно и безоблачно+31°C53 %757 мм3.6 м/с2 %
    22:00Ясно и безоблачно+26°C68 %758 мм2.0 м/с2 %
  • 18июля
    Четверг
    +22°
    +36°
    Практически безоблачно
    ВремяПогодаТемператураВлажностьДавлениеВетер, м/сВероятность осадков
    01:00Ясно и безоблачно+24°C76 %757 мм1.1 м/с2 %
    04:00Ясно и безоблачно+22°C80 %757 мм0.2 м/с2 %
    07:00Ясно и безоблачно+24°C74 %758 мм1.1 м/с2 %
    10:00Небольшая облачность+32°C54 %758 мм1.4 м/с9 %
    13:00Практически безоблачно+36°C40 %757 мм4.8 м/с16 %
    16:00Практически безоблачно+34°C44 %756 мм5.0 м/с11 %
    19:00Ясно и безоблачно+32°C48 %756 мм3.8 м/с2 %
    22:00Ясно и безоблачно+27°C63 %757 мм1.8 м/с2 %
  • 19июля
    Пятница
    +21°
    +36°
    Практически безоблачно
    ВремяПогодаТемператураВлажностьДавлениеВетер, м/сВероятность осадков
    01:00Ясно и безоблачно+24°C71 %757 мм1.6 м/с2 %
    04:00Ясно и безоблачно+23°C72 %756 мм0.9 м/с2 %
    07:00Ясно и безоблачно+25°C68 %756 мм0.7 м/с4 %
    10:00Небольшая облачность+31°C55 %756 мм2.2 м/с10 %
    13:00Практически безоблачно+35°C34 %755 мм3.5 м/с6 %
    16:00Ясно и безоблачно+35°C33 %754 мм4.6 м/с5 %
    19:00Ясно и безоблачно+31°C52 %754 мм3.7 м/с2 %
    22:00Ясно и безоблачно+26°C65 %755 мм1.5 м/с2 %
  • 20июля
    Суббота
    +22°
    +37°
    Ясно и безоблачно
    ВремяПогодаТемператураВлажностьДавлениеВетер, м/сВероятность осадков
    01:00Ясно и безоблачно+23°C73 %754 мм0.2 м/с2 %
    04:00Ясно и безоблачно+22°C78 %754 мм1.2 м/с2 %
    07:00Ясно и безоблачно+24°C72 %755 мм1.6 м/с2 %
    10:00Ясно и безоблачно+32°C47 %754 мм1.4 м/с2 %
    13:00Ясно и безоблачно+36°C33 %753 мм3.4 м/с3 %
    16:00Ясно и безоблачно+35°C38 %753 мм4.8 м/с2 %
    19:00Ясно и безоблачно+31°C54 %753 мм3.9 м/с2 %
    22:00Ясно и безоблачно+27°C68 %754 мм1.9 м/с2 %
Мы используем cookies
Соглашаюсь